Sagle, Idaho
Current Conditions -  °F | °C
As of 12:35 PM on Monday 26 Jan 2015 (Local Time) from KSZT Reporting Station
Moderate Fog Moderate Fog  
Wind Chill: 36°   Ceiling: 200
Heat Index: 36°   Visibility: 0.25mi
Dew Point: 36°   Wind: 3mph
Humidity: 100%   Direction: 160°SSE
Pressure: 30.07"   Gusts: NA
Location:  48.2°N, 116.55°W
Report Text: KSZT 262035Z AUTO 16003KT 1/4SM FG OVC002 02/02 A3007 RMK AO2
Loading
Personal Weather Stations






























Interactive Weather Map New forecast layout! Learn more

10-Day Weather Forecast

Advertisements
Track Severe Weather on mobile